Time;durP1;ratioP1;P1;durP2;ratioP2;P2;SDS_P1;SDS_P2;PMS_P1;PMS_P2;Temp;Humidity;BMP_temperature;BMP_pressure;BME280_temperature;BME280_humidity;BME280_pressure;Samples;Min_cycle;Max_cycle;Signal;HPM_P1;HPM_P2
2022/10/17 00:00:04;;;;;;;;;;;;;;;12.75;100.00;101124.97;3057601;19;19926;-55
2022/10/17 00:01:09;;;;;;;;;;;;;;;12.71;100.00;101121.63;3057153;19;19926;-53
2022/10/17 00:02:11;;;;;;;;;;;;;;;12.72;100.00;101125.16;3057266;19;20613;-54
2022/10/17 00:03:15;;;;;;;;;;;;;;;12.75;100.00;101130.34;3057225;19;19974;-54
2022/10/17 00:04:17;;;;;;;;;;;;;;;12.76;100.00;101132.06;3057593;19;19918;-52
2022/10/17 00:05:21;;;;;;;;;;;;;;;12.81;100.00;101135.31;3057492;19;19930;-53
2022/10/17 00:06:23;;;;;;;;;;;;;;;12.86;100.00;101138.59;3057657;19;19956;-52
2022/10/17 00:07:28;;;;;;;;;;;;;;;12.90;100.00;101140.13;3057293;19;19930;-54
2022/10/17 00:08:30;;;;;;;;;;;;;;;12.94;100.00;101141.66;3057619;19;19938;-52
2022/10/17 00:09:35;;;;;;;;;;;;;;;12.95;100.00;101133.53;3056413;19;19919;-54
2022/10/17 00:10:38;;;;;;;;;;;;;;;12.97;100.00;101131.63;3057580;19;19944;-53
2022/10/17 00:11:42;;;;;;;;;;;;;;;12.98;100.00;101137.84;3056977;19;19919;-52
2022/10/17 00:12:44;;;;;;;;;;;;;;;12.96;100.00;101137.06;3057218;19;20379;-52
2022/10/17 00:13:49;;;;;;;;;;;;;;;12.95;100.00;101132.66;3057087;19;19942;-52
2022/10/17 00:14:51;;;;;;;;;;;;;;;12.93;100.00;101130.06;3057258;19;19937;-53
2022/10/17 00:15:56;;;;;;;;;;;;;;;12.86;100.00;101125.19;3057239;19;20002;-53
2022/10/17 00:16:58;;;;;;;;;;;;;;;12.89;100.00;101138.41;3057363;19;20023;-52
2022/10/17 00:18:03;;;;;;;;;;;;;;;12.86;100.00;101138.59;3057181;19;20325;-52
2022/10/17 00:19:08;;;;;;;;;;;;;;;12.84;100.00;101135.13;3058944;19;19943;-54
2022/10/17 00:20:10;;;;;;;;;;;;;;;12.81;100.00;101133.50;3057166;19;19935;-54
2022/10/17 00:21:18;;;;;;;;;;;;;;;12.79;100.00;101138.09;3057162;19;19919;-53
2022/10/17 00:22:21;;;;;;;;;;;;;;;12.74;100.00;101142.00;3056667;19;20384;-52
2022/10/17 00:23:26;;;;;;;;;;;;;;;12.70;100.00;101137.78;3056897;19;19922;-53
2022/10/17 00:24:29;;;;;;;;;;;;;;;12.68;100.00;101137.84;3056803;19;19941;-53
2022/10/17 00:25:33;;;;;;;;;;;;;;;12.66;100.00;101138.94;3056613;19;19922;-52
2022/10/17 00:26:35;;;;;;;;;;;;;;;12.62;100.00;101143.59;3057114;19;19923;-54
2022/10/17 00:27:40;;;;;;;;;;;;;;;12.58;100.00;101145.59;3056810;19;19923;-52
2022/10/17 00:28:45;;;;;;;;;;;;;;;12.56;100.00;101141.28;3057331;19;19926;-51
2022/10/17 00:29:50;;;;;;;;;;;;;;;12.53;100.00;101158.41;3056176;19;19915;-52
2022/10/17 00:30:56;;;;;;;;;;;;;;;12.52;100.00;101161.16;3057183;19;19919;-52
2022/10/17 00:32:00;;;;;;;;;;;;;;;12.49;100.00;101156.84;3056806;19;19926;-52
2022/10/17 00:33:02;;;;;;;;;;;;;;;12.48;100.00;101159.63;3057156;19;19927;-54
2022/10/17 00:34:07;;;;;;;;;;;;;;;12.46;100.00;101157.03;3055985;19;19926;-54
2022/10/17 00:35:09;;;;;;;;;;;;;;;12.46;100.00;101157.03;3056074;19;20279;-54
2022/10/17 00:36:13;;;;;;;;;;;;;;;12.46;100.00;101162.38;3056581;19;19930;-54
2022/10/17 00:37:18;;;;;;;;;;;;;;;12.46;100.00;101162.38;3056158;19;19923;-53
2022/10/17 00:38:20;;;;;;;;;;;;;;;12.49;100.00;101156.84;3055876;19;19914;-51
2022/10/17 00:39:25;;;;;;;;;;;;;;;12.52;100.00;101161.16;3056810;19;20365;-52
2022/10/17 00:40:26;;;;;;;;;;;;;;;12.53;100.00;101158.41;3055636;19;20334;-54
2022/10/17 00:41:33;;;;;;;;;;;;;;;12.56;100.00;101154.66;3056046;19;20242;-51
2022/10/17 00:42:39;;;;;;;;;;;;;;;12.58;100.00;101164.34;3056850;19;20494;-53
2022/10/17 00:43:55;;;;;;;;;;;;;;;12.60;100.00;101158.88;3056930;19;19915;-51
2022/10/17 00:44:59;;;;;;;;;;;;;;;12.61;100.00;101156.13;3056708;19;19929;-53
2022/10/17 00:46:04;;;;;;;;;;;;;;;12.63;100.00;101156.91;3056890;19;19966;-55
2022/10/17 00:47:08;;;;;;;;;;;;;;;12.65;100.00;101155.94;3056809;19;19982;-54
2022/10/17 00:48:12;;;;;;;;;;;;;;;12.65;100.00;101150.59;3055822;19;19927;-53
2022/10/17 00:49:14;;;;;;;;;;;;;;;12.66;100.00;101152.31;3055646;19;19986;-54
2022/10/17 00:50:19;;;;;;;;;;;;;;;12.66;100.00;101155.00;3056825;19;19938;-51
2022/10/17 00:51:22;;;;;;;;;;;;;;;12.63;100.00;101156.91;3055530;19;19927;-52
2022/10/17 00:52:28;;;;;;;;;;;;;;;12.60;100.00;101154.41;3056014;19;19918;-54
2022/10/17 00:53:31;;;;;;;;;;;;;;;12.57;100.00;101149.22;3055890;19;19942;-51
2022/10/17 00:54:37;;;;;;;;;;;;;;;12.53;100.00;101150.38;3055491;19;20004;-53
2022/10/17 00:55:43;;;;;;;;;;;;;;;12.49;100.00;101146.13;3055802;19;19919;-54
2022/10/17 00:56:48;;;;;;;;;;;;;;;12.45;100.00;101146.41;3055445;19;19935;-53
2022/10/17 00:57:50;;;;;;;;;;;;;;;12.41;100.00;101152.91;3055978;19;19926;-52
2022/10/17 00:58:55;;;;;;;;;;;;;;;12.38;100.00;101148.59;3055736;19;19933;-54
2022/10/17 00:59:57;;;;;;;;;;;;;;;12.37;100.00;101156.69;3055867;19;20376;-52
2022/10/17 01:01:02;;;;;;;;;;;;;;;12.35;100.00;101156.78;3055673;19;20029;-53
2022/10/17 01:02:08;;;;;;;;;;;;;;;12.33;100.00;101155.16;3055941;19;19922;-54
2022/10/17 01:03:12;;;;;;;;;;;;;;;12.33;100.00;101165.84;3055648;19;19918;-53
2022/10/17 01:04:15;;;;;;;;;;;;;;;12.35;100.00;101159.47;3055717;19;19922;-54
2022/10/17 01:05:19;;;;;;;;;;;;;;;12.37;100.00;101162.91;3055460;19;20028;-52
2022/10/17 01:06:21;;;;;;;;;;;;;;;12.41;100.00;101164.47;3055576;19;19923;-55
2022/10/17 01:07:26;;;;;;;;;;;;;;;12.46;100.00;101157.03;3054513;19;19922;-53
2022/10/17 01:08:28;;;;;;;;;;;;;;;12.52;100.00;101154.00;3055716;19;20298;-53
2022/10/17 01:09:32;;;;;;;;;;;;;;;12.58;100.00;101161.66;3055256;19;19986;-54
2022/10/17 01:11:03;;;;;;;;;;;;;;;12.60;100.00;101143.69;3056702;19;19977;-51
2022/10/17 01:12:07;;;;;;;;;;;;;;;12.73;100.00;101153.66;3055536;19;19946;-54
2022/10/17 01:13:23;;;;;;;;;;;;;;;12.78;100.00;101156.94;3055610;19;19994;-53
2022/10/17 01:14:28;;;;;;;;;;;;;;;12.81;100.00;101157.59;3055677;19;19915;-52
2022/10/17 01:15:35;;;;;;;;;;;;;;;12.83;100.00;101160.19;3055351;19;19991;-52
2022/10/17 01:16:37;;;;;;;;;;;;;;;12.82;100.00;101164.69;3055378;19;19919;-52
2022/10/17 01:17:45;;;;;;;;;;;;;;;12.79;100.00;101154.19;3055340;19;19942;-54
2022/10/17 01:19:08;;;;;;;;;;;;;;;12.77;100.00;101161.44;3055511;19;20255;-52
2022/10/17 01:20:10;;;;;;;;;;;;;;;12.70;100.00;101165.41;3055289;19;20401;-52
2022/10/17 01:21:33;;;;;;;;;;;;;;;12.65;100.00;101161.31;3055281;19;19982;-53
2022/10/17 01:22:37;;;;;;;;;;;;;;;12.56;100.00;101168.03;3056137;19;19935;-54
2022/10/17 01:23:46;;;;;;;;;;;;;;;12.51;100.00;101162.97;3055224;19;19938;-52
2022/10/17 01:25:00;;;;;;;;;;;;;;;12.47;100.00;101164.09;3055571;19;20034;-51
2022/10/17 01:26:07;;;;;;;;;;;;;;;12.46;100.00;101162.38;3055374;19;19922;-54
2022/10/17 01:27:17;;;;;;;;;;;;;;;12.46;100.00;101165.06;3055331;19;20421;-54
2022/10/17 01:28:22;;;;;;;;;;;;;;;12.39;100.00;101150.31;3055126;19;19919;-53
2022/10/17 01:29:29;;;;;;;;;;;;;;;12.46;100.00;101172.22;3055438;19;19926;-51
2022/10/17 01:30:53;;;;;;;;;;;;;;;12.45;100.00;101166.00;3054556;19;19960;-51
2022/10/17 01:31:55;;;;;;;;;;;;;;;12.44;100.00;101169.63;3055308;19;19929;-52
2022/10/17 01:33:21;;;;;;;;;;;;;;;12.46;100.00;101165.06;3055024;19;19918;-51
2022/10/17 01:34:30;;;;;;;;;;;;;;;12.47;100.00;101173.94;3053393;19;19924;-54
2022/10/17 01:35:38;;;;;;;;;;;;;;;12.48;100.00;101160.47;3055146;19;19919;-54
2022/10/17 01:36:43;;;;;;;;;;;;;;;12.48;100.00;101155.13;3053999;19;19926;-54
2022/10/17 01:37:50;;;;;;;;;;;;;;;12.50;100.00;101153.22;3055033;19;19926;-53
2022/10/17 01:39:34;;;;;;;;;;;;;;;12.51;100.00;101154.94;3055026;19;20290;-52
2022/10/17 01:40:43;;;;;;;;;;;;;;;12.49;100.00;101148.81;3055039;19;19942;-52
2022/10/17 01:41:53;;;;;;;;;;;;;;;12.49;100.00;101151.50;3055197;19;19918;-53
2022/10/17 01:43:06;;;;;;;;;;;;;;;12.48;100.00;101148.91;3054892;19;19930;-54
2022/10/17 01:44:11;;;;;;;;;;;;;;;12.47;100.00;101148.03;3055483;19;19922;-52
2022/10/17 01:45:15;;;;;;;;;;;;;;;12.47;100.00;101155.22;3054966;19;19936;-54
2022/10/17 01:46:37;;;;;;;;;;;;;;;12.46;100.00;101169.53;3055412;19;19915;-54
2022/10/17 01:47:39;;;;;;;;;;;;;;;12.47;100.00;101165.91;3054715;19;20019;-54
2022/10/17 01:48:44;;;;;;;;;;;;;;;12.44;100.00;101169.63;3055124;19;19927;-52
2022/10/17 01:49:46;;;;;;;;;;;;;;;12.45;100.00;101171.34;3054898;19;19932;-53
2022/10/17 01:50:55;;;;;;;;;;;;;;;12.43;100.00;101162.59;3054457;19;19926;-52
2022/10/17 01:51:58;;;;;;;;;;;;;;;12.38;100.00;101164.66;3055127;19;19953;-55
2022/10/17 01:53:04;;;;;;;;;;;;;;;12.35;100.00;101164.81;3054614;19;19927;-53
2022/10/17 01:54:09;;;;;;;;;;;;;;;12.31;100.00;101163.28;3054979;19;19922;-54
2022/10/17 01:55:15;;;;;;;;;;;;;;;12.27;100.00;101156.38;3054902;19;19925;-52
2022/10/17 01:56:17;;;;;;;;;;;;;;;12.25;100.00;101164.50;3055121;19;19919;-53
2022/10/17 01:57:25;;;;;;;;;;;;;;;12.23;100.00;101173.56;3054897;19;20278;-52
2022/10/17 01:58:28;;;;;;;;;;;;;;;12.19;100.00;101164.00;3055212;19;19923;-53
2022/10/17 01:59:36;;;;;;;;;;;;;;;12.18;100.00;101178.34;3054905;19;19982;-54
2022/10/17 02:00:41;;;;;;;;;;;;;;;12.16;100.00;101174.88;3055065;19;19922;-53
2022/10/17 02:01:46;;;;;;;;;;;;;;;12.14;100.00;101166.94;3054819;19;20475;-52
2022/10/17 02:02:50;;;;;;;;;;;;;;;12.12;100.00;101163.47;3055147;19;20000;-54
2022/10/17 02:03:54;;;;;;;;;;;;;;;12.11;100.00;101167.09;3055088;19;19934;-52
2022/10/17 02:04:56;;;;;;;;;;;;;;;12.10;100.00;101164.50;3054960;19;19982;-52
2022/10/17 02:06:01;;;;;;;;;;;;;;;12.09;100.00;101166.31;3054890;19;20329;-53
2022/10/17 02:07:09;;;;;;;;;;;;;;;12.10;100.00;101169.84;3054806;19;20610;-52
2022/10/17 02:08:14;;;;;;;;;;;;;;;12.07;100.00;101170.06;3054956;19;19923;-53
2022/10/17 02:09:16;;;;;;;;;;;;;;;12.09;100.00;101176.16;3055059;19;19922;-54
2022/10/17 02:10:23;;;;;;;;;;;;;;;12.09;100.00;101170.81;3054902;19;19954;-52
2022/10/17 02:11:25;;;;;;;;;;;;;;;12.08;100.00;101163.72;3055089;19;19918;-54
2022/10/17 02:12:45;;;;;;;;;;;;;;;12.07;100.00;101172.72;3054481;19;20354;-53
2022/10/17 02:13:46;;;;;;;;;;;;;;;12.07;100.00;101170.91;3054503;19;20311;-53
2022/10/17 02:15:10;;;;;;;;;;;;;;;12.07;100.00;101176.28;3054864;19;19921;-51
2022/10/17 02:16:12;;;;;;;;;;;;;;;12.07;100.00;101180.75;3054636;19;19939;-54
2022/10/17 02:17:20;;;;;;;;;;;;;;;12.06;100.00;101173.69;3054967;19;20011;-51
2022/10/17 02:18:30;;;;;;;;;;;;;;;12.05;100.00;101178.16;3054419;19;20581;-50
2022/10/17 02:19:37;;;;;;;;;;;;;;;12.03;100.00;101169.34;3057313;19;19929;-52
2022/10/17 02:20:48;;;;;;;;;;;;;;;12.02;100.00;101166.75;3057667;19;19927;-52
2022/10/17 02:21:55;;;;;;;;;;;;;;;12.00;100.00;101168.66;3057782;19;19918;-51
2022/10/17 02:23:25;;;;;;;;;;;;;;;12.00;100.00;101179.34;3057445;19;20351;-54
2022/10/17 02:24:36;;;;;;;;;;;;;;;12.00;100.00;101174.88;3056370;19;19921;-53
2022/10/17 02:25:55;;;;;;;;;;;;;;;11.99;100.00;101174.94;3058030;19;19923;-53
2022/10/17 02:27:05;;;;;;;;;;;;;;;11.97;100.00;101179.53;3058658;19;20317;-53
2022/10/17 02:28:15;;;;;;;;;;;;;;;11.96;100.00;101186.69;3057910;19;19991;-54
2022/10/17 02:29:18;;;;;;;;;;;;;;;11.96;100.00;101188.50;3057530;19;20083;-52
2022/10/17 02:30:23;;;;;;;;;;;;;;;11.95;100.00;101193.00;3057803;19;19968;-52
2022/10/17 02:31:25;;;;;;;;;;;;;;;11.94;100.00;101191.28;3056635;19;19918;-51
2022/10/17 02:32:30;;;;;;;;;;;;;;;11.90;100.00;101201.28;3057869;19;19923;-54
2022/10/17 02:34:01;;;;;;;;;;;;;;;11.87;100.00;101192.56;3057873;19;19915;-53
2022/10/17 02:35:03;;;;;;;;;;;;;;;11.84;100.00;101188.22;3057113;19;19915;-52
2022/10/17 02:36:14;;;;;;;;;;;;;;;11.81;100.00;101193.78;3057408;19;19927;-54
2022/10/17 02:37:17;;;;;;;;;;;;;;;11.80;100.00;101188.50;3057428;19;19930;-53
2022/10/17 02:38:22;;;;;;;;;;;;;;;11.78;100.00;101190.41;3057801;19;19918;-52
2022/10/17 02:39:24;;;;;;;;;;;;;;;11.76;100.00;101195.81;3057547;19;19954;-54
2022/10/17 02:40:29;;;;;;;;;;;;;;;11.75;100.00;101196.78;3057490;19;20404;-53
2022/10/17 02:41:31;;;;;;;;;;;;;;;11.74;100.00;101195.00;3057520;19;19919;-52
2022/10/17 02:42:35;;;;;;;;;;;;;;;11.74;100.00;101194.16;3057541;19;19930;-54
2022/10/17 02:43:37;;;;;;;;;;;;;;;11.72;100.00;101196.91;3057357;19;19918;-54
2022/10/17 02:44:42;;;;;;;;;;;;;;;11.73;100.00;101198.63;3057694;19;19922;-52
2022/10/17 02:45:50;;;;;;;;;;;;;;;11.73;100.00;101203.97;3057327;19;19919;-53
2022/10/17 02:46:54;;;;;;;;;;;;;;;11.72;100.00;101202.25;3057771;19;20031;-51
2022/10/17 02:48:10;;;;;;;;;;;;;;;11.72;100.00;101204.06;3057236;19;19926;-54
2022/10/17 02:49:16;;;;;;;;;;;;;;;11.71;100.00;101211.22;3057707;19;19919;-53
2022/10/17 02:50:21;;;;;;;;;;;;;;;11.68;100.00;101211.41;3057225;19;20486;-53
2022/10/17 02:51:26;;;;;;;;;;;;;;;11.66;100.00;101218.63;3056977;19;19926;-52
2022/10/17 02:52:43;;;;;;;;;;;;;;;11.63;100.00;101224.16;3057555;19;19915;-53
2022/10/17 02:53:47;;;;;;;;;;;;;;;11.59;100.00;101233.31;3057476;19;20338;-51
2022/10/17 02:54:55;;;;;;;;;;;;;;;11.57;100.00;101228.97;3057561;19;20323;-51
2022/10/17 02:55:59;;;;;;;;;;;;;;;11.54;100.00;101225.53;3057212;19;20296;-52
2022/10/17 02:57:11;;;;;;;;;;;;;;;11.52;100.00;101232.75;3057555;19;20562;-54
2022/10/17 02:58:17;;;;;;;;;;;;;;;11.50;100.00;101236.44;3057013;19;19926;-54
2022/10/17 02:59:23;;;;;;;;;;;;;;;11.50;100.00;101236.44;3057452;19;19927;-52
2022/10/17 03:00:25;;;;;;;;;;;;;;;11.50;100.00;101231.09;3057796;19;20285;-53
2022/10/17 03:01:29;;;;;;;;;;;;;;;11.51;100.00;101240.84;3057623;19;19922;-53
2022/10/17 03:02:42;;;;;;;;;;;;;;;11.52;100.00;101237.22;3057263;19;20293;-54
2022/10/17 03:03:46;;;;;;;;;;;;;;;11.52;100.00;101234.56;3057584;19;19919;-52
2022/10/17 03:04:48;;;;;;;;;;;;;;;11.53;100.00;101230.94;3057858;19;19979;-51
2022/10/17 03:05:53;;;;;;;;;;;;;;;11.53;100.00;101234.47;3057206;19;20439;-51
2022/10/17 03:06:58;;;;;;;;;;;;;;;11.53;100.00;101238.97;3057188;19;19931;-53
2022/10/17 03:08:02;;;;;;;;;;;;;;;11.52;100.00;101237.22;3057086;19;20315;-52
2022/10/17 03:09:04;;;;;;;;;;;;;;;11.53;100.00;101238.97;3057072;19;19914;-52
2022/10/17 03:10:09;;;;;;;;;;;;;;;11.54;100.00;101240.69;3056869;19;19927;-52
2022/10/17 03:11:11;;;;;;;;;;;;;;;11.55;100.00;101240.63;3057249;19;20274;-54
2022/10/17 03:12:16;;;;;;;;;;;;;;;11.58;100.00;101236.06;3057056;19;20360;-53
2022/10/17 03:13:18;;;;;;;;;;;;;;;11.61;100.00;101243.88;3057123;19;20263;-54
2022/10/17 03:14:22;;;;;;;;;;;;;;;11.65;100.00;101227.59;3056131;19;20006;-54
2022/10/17 03:15:25;;;;;;;;;;;;;;;11.72;100.00;101239.69;3057238;19;19941;-53
2022/10/17 03:16:29;;;;;;;;;;;;;;;11.77;100.00;101243.03;3056744;19;19932;-54
2022/10/17 03:17:31;;;;;;;;;;;;;;;11.81;100.00;101239.25;3058039;19;19927;-54
2022/10/17 03:18:36;;;;;;;;;;;;;;;11.87;100.00;101238.88;3056889;19;19942;-52
2022/10/17 03:19:38;;;;;;;;;;;;;;;11.95;100.00;101234.94;3056852;19;19915;-53
2022/10/17 03:20:42;;;;;;;;;;;;;;;12.00;100.00;101227.50;3056871;19;19935;-54
2022/10/17 03:21:44;;;;;;;;;;;;;;;12.06;100.00;101227.19;3058009;19;19918;-53
2022/10/17 03:22:49;;;;;;;;;;;;;;;12.12;100.00;101237.53;3057799;19;19936;-55
2022/10/17 03:23:50;;;;;;;;;;;;;;;12.18;100.00;101237.19;3057346;19;19919;-54
2022/10/17 03:24:57;;;;;;;;;;;;;;;12.23;100.00;101235.09;3056773;19;20334;-54
2022/10/17 03:26:02;;;;;;;;;;;;;;;12.30;100.00;101231.16;3057112;19;20030;-53
2022/10/17 03:27:07;;;;;;;;;;;;;;;12.37;100.00;101237.00;3056845;19;19922;-53
2022/10/17 03:28:11;;;;;;;;;;;;;;;12.42;100.00;101233.13;3057072;19;19941;-51
2022/10/17 03:29:16;;;;;;;;;;;;;;;12.47;100.00;101228.34;3056774;19;19935;-52
2022/10/17 03:30:18;;;;;;;;;;;;;;;12.53;100.00;101233.38;3056782;19;19927;-53
2022/10/17 03:31:23;;;;;;;;;;;;;;;12.58;100.00;101225.91;3056885;19;19918;-51
2022/10/17 03:32:26;;;;;;;;;;;;;;;12.63;100.00;101234.56;3056031;19;20591;-53
2022/10/17 03:33:30;;;;;;;;;;;;;;;12.69;100.00;101221.75;3056973;19;19930;-54
2022/10/17 03:34:32;;;;;;;;;;;;;;;12.71;100.00;101225.19;3056805;19;19958;-53
2022/10/17 03:35:37;;;;;;;;;;;;;;;12.75;100.00;101226.75;3057643;19;19915;-52
2022/10/17 03:36:42;;;;;;;;;;;;;;;12.77;100.00;101227.53;3056340;19;20008;-53
2022/10/17 03:37:45;;;;;;;;;;;;;;;12.77;100.00;101235.56;3056550;19;19987;-52
2022/10/17 03:38:51;;;;;;;;;;;;;;;12.79;100.00;101228.31;3056734;19;20277;-54
2022/10/17 03:39:53;;;;;;;;;;;;;;;12.78;100.00;101226.59;3056502;19;20598;-53
2022/10/17 03:40:58;;;;;;;;;;;;;;;12.77;100.00;101224.84;3056855;19;19918;-53
2022/10/17 03:42:00;;;;;;;;;;;;;;;12.78;100.00;101230.13;3056359;19;20310;-51
2022/10/17 03:43:04;;;;;;;;;;;;;;;12.76;100.00;101233.84;3056625;19;19930;-54
2022/10/17 03:44:06;;;;;;;;;;;;;;;12.73;100.00;101228.66;3056400;19;20306;-54
2022/10/17 03:45:11;;;;;;;;;;;;;;;12.70;100.00;101224.34;3057060;19;19919;-52
2022/10/17 03:46:13;;;;;;;;;;;;;;;12.69;100.00;101227.09;3056799;19;19942;-53
2022/10/17 03:47:18;;;;;;;;;;;;;;;12.65;100.00;101237.16;3056684;19;19950;-54
2022/10/17 03:48:20;;;;;;;;;;;;;;;12.62;100.00;101232.84;3056465;19;19915;-53
2022/10/17 03:49:25;;;;;;;;;;;;;;;12.60;100.00;101233.88;3056554;19;20019;-54
2022/10/17 03:50:27;;;;;;;;;;;;;;;12.58;100.00;101233.09;3056893;19;20258;-52
2022/10/17 03:51:32;;;;;;;;;;;;;;;12.57;100.00;101237.56;3056777;19;19941;-53
2022/10/17 03:52:37;;;;;;;;;;;;;;;12.55;100.00;101236.84;3055650;19;19922;-53
2022/10/17 03:53:42;;;;;;;;;;;;;;;12.55;100.00;101236.84;3056738;19;19915;-52
2022/10/17 03:54:44;;;;;;;;;;;;;;;12.56;100.00;101238.53;3056606;19;19984;-54
2022/10/17 03:55:48;;;;;;;;;;;;;;;12.54;100.00;101244.94;3056794;19;19919;-52
2022/10/17 03:56:51;;;;;;;;;;;;;;;12.54;100.00;101234.25;3057857;19;20308;-53
2022/10/17 03:57:56;;;;;;;;;;;;;;;12.54;100.00;101245.81;3056554;19;20238;-53
2022/10/17 03:58:58;;;;;;;;;;;;;;;12.56;100.00;101246.56;3057428;19;19922;-52
2022/10/17 04:00:05;;;;;;;;;;;;;;;12.60;100.00;101242.75;3056392;19;20002;-53
2022/10/17 04:01:16;;;;;;;;;;;;;;;12.65;100.00;101252.34;3056559;19;19988;-52
2022/10/17 04:02:22;;;;;;;;;;;;;;;12.71;100.00;101246.63;3056087;19;19926;-54
2022/10/17 04:03:24;;;;;;;;;;;;;;;12.78;100.00;101242.66;3056177;19;19915;-53
2022/10/17 04:04:28;;;;;;;;;;;;;;;12.84;100.00;101247.63;3056297;19;19929;-53
2022/10/17 04:05:31;;;;;;;;;;;;;;;12.90;100.00;101244.63;3056341;19;20266;-53
2022/10/17 04:06:35;;;;;;;;;;;;;;;12.93;100.00;101242.59;3056338;19;19923;-52
2022/10/17 04:07:38;;;;;;;;;;;;;;;12.99;100.00;101246.75;3056332;19;19934;-52
2022/10/17 04:08:43;;;;;;;;;;;;;;;13.01;100.00;101250.19;3056454;19;20003;-53
2022/10/17 04:09:49;;;;;;;;;;;;;;;13.04;100.00;101250.00;3056299;19;20243;-51
2022/10/17 04:10:59;;;;;;;;;;;;;;;13.08;100.00;101254.22;3055832;19;20042;-53
2022/10/17 04:12:01;;;;;;;;;;;;;;;13.12;100.00;101253.09;3056352;19;19923;-53
2022/10/17 04:13:07;;;;;;;;;;;;;;;13.16;100.00;101254.66;3055307;19;19922;-54
2022/10/17 04:14:09;;;;;;;;;;;;;;;13.21;100.00;101251.69;3056267;19;19932;-53
2022/10/17 04:15:15;;;;;;;;;;;;;;;13.23;100.00;101249.78;3056110;19;19923;-51
2022/10/17 04:16:18;;;;;;;;;;;;;;;13.23;100.00;101255.16;3056438;19;20298;-53
2022/10/17 04:17:44;;;;;;;;;;;;;;;13.21;100.00;101254.38;3056077;19;19935;-52
2022/10/17 04:18:57;;;;;;;;;;;;;;;13.16;100.00;101251.97;3055843;19;20269;-52
2022/10/17 04:20:03;;;;;;;;;;;;;;;13.13;100.00;101257.50;3056481;19;19971;-54
2022/10/17 04:21:05;;;;;;;;;;;;;;;13.08;100.00;101254.22;3056108;19;19923;-51
2022/10/17 04:22:10;;;;;;;;;;;;;;;13.04;100.00;101260.72;3056848;19;19922;-55
2022/10/17 04:23:13;;;;;;;;;;;;;;;13.01;100.00;101263.59;3055297;19;19919;-54
2022/10/17 04:24:18;;;;;;;;;;;;;;;12.95;100.00;101266.63;3055987;19;19919;-53
2022/10/17 04:25:25;;;;;;;;;;;;;;;12.89;100.00;101261.63;3055920;19;19969;-52
2022/10/17 04:26:30;;;;;;;;;;;;;;;12.87;100.00;101268.91;3056331;19;19919;-53
2022/10/17 04:27:32;;;;;;;;;;;;;;;12.82;100.00;101265.63;3056472;19;19931;-51
2022/10/17 04:28:37;;;;;;;;;;;;;;;12.78;100.00;101269.44;3056368;19;19930;-53
2022/10/17 04:29:40;;;;;;;;;;;;;;;12.76;100.00;101268.66;3055170;19;19923;-54
2022/10/17 04:30:57;;;;;;;;;;;;;;;12.71;100.00;101274.28;3056636;19;19926;-53
2022/10/17 04:32:05;;;;;;;;;;;;;;;12.69;100.00;101275.31;3054829;19;20063;-52
2022/10/17 04:33:34;;;;;;;;;;;;;;;12.67;100.00;101267.38;3052204;19;19922;-53
2022/10/17 04:34:36;;;;;;;;;;;;;;;12.65;100.00;101268.44;3055592;19;19923;-52
2022/10/17 04:35:40;;;;;;;;;;;;;;;12.65;100.00;101268.44;3055006;19;20948;-53
2022/10/17 04:36:42;;;;;;;;;;;;;;;12.63;100.00;101269.38;3054620;19;19934;-54
2022/10/17 04:37:47;;;;;;;;;;;;;;;12.63;100.00;101265.84;3055155;19;19911;-53
2022/10/17 04:38:51;;;;;;;;;;;;;;;12.63;100.00;101261.34;3055452;19;19919;-52
2022/10/17 04:39:57;;;;;;;;;;;;;;;12.63;100.00;101266.69;3054862;19;19950;-52
2022/10/17 04:41:01;;;;;;;;;;;;;;;12.64;100.00;101262.22;3055224;19;19925;-53
2022/10/17 04:42:06;;;;;;;;;;;;;;;12.65;100.00;101268.44;3053341;19;19923;-54
2022/10/17 04:43:08;;;;;;;;;;;;;;;12.65;100.00;101260.38;3055079;19;19918;-54
2022/10/17 04:44:14;;;;;;;;;;;;;;;12.66;100.00;101264.78;3055190;19;19966;-53
2022/10/17 04:45:21;;;;;;;;;;;;;;;12.67;100.00;101261.16;3056194;19;19927;-54
2022/10/17 04:46:31;;;;;;;;;;;;;;;12.68;100.00;101268.25;3055122;19;20510;-54
2022/10/17 04:47:33;;;;;;;;;;;;;;;12.68;100.00;101262.91;3055926;19;19922;-53
2022/10/17 04:48:38;;;;;;;;;;;;;;;12.71;100.00;101273.41;3055609;19;19918;-53
2022/10/17 04:49:42;;;;;;;;;;;;;;;12.73;100.00;101274.19;3056029;19;19936;-51
2022/10/17 04:50:54;;;;;;;;;;;;;;;12.74;100.00;101267.88;3055542;19;19923;-51
2022/10/17 04:52:07;;;;;;;;;;;;;;;12.75;100.00;101277.66;3055828;19;19949;-52
2022/10/17 04:53:22;;;;;;;;;;;;;;;12.75;100.00;101291.03;3055445;19;20027;-51
2022/10/17 04:54:26;;;;;;;;;;;;;;;12.75;100.00;101293.72;3055567;19;20270;-52
2022/10/17 04:55:36;;;;;;;;;;;;;;;12.74;100.00;101297.34;3055910;19;19922;-54
2022/10/17 04:56:41;;;;;;;;;;;;;;;12.72;100.00;101300.09;3055658;19;19919;-54
2022/10/17 04:57:43;;;;;;;;;;;;;;;12.71;100.00;101302.88;3055702;19;20417;-53
2022/10/17 04:58:56;;;;;;;;;;;;;;;12.72;100.00;101301.91;3055627;19;19940;-53
2022/10/17 04:59:58;;;;;;;;;;;;;;;12.72;100.00;101301.91;3055646;19;19939;-52
2022/10/17 05:01:23;;;;;;;;;;;;;;;12.71;100.00;101294.84;3054546;19;19935;-53
2022/10/17 05:02:27;;;;;;;;;;;;;;;12.71;100.00;101301.06;3055761;19;19922;-54
2022/10/17 05:03:32;;;;;;;;;;;;;;;12.70;100.00;101299.31;3055409;19;19927;-53
2022/10/17 05:04:34;;;;;;;;;;;;;;;12.68;100.00;101306.56;3056490;19;19935;-51
2022/10/17 05:05:40;;;;;;;;;;;;;;;12.69;100.00;101318.16;3055875;19;19922;-53
2022/10/17 05:06:41;;;;;;;;;;;;;;;12.68;100.00;101314.63;3055265;19;19926;-51
2022/10/17 05:08:14;;;;;;;;;;;;;;;12.66;100.00;101313.00;3056090;19;19915;-54
2022/10/17 05:09:17;;;;;;;;;;;;;;;12.63;100.00;101322.94;3055208;19;20351;-54
2022/10/17 05:10:22;;;;;;;;;;;;;;;12.61;100.00;101316.78;3055362;19;19919;-52
2022/10/17 05:11:29;;;;;;;;;;;;;;;12.60;100.00;101315.06;3056761;19;19922;-51
2022/10/17 05:12:31;;;;;;;;;;;;;;;12.57;100.00;101307.19;3053193;19;19927;-53
2022/10/17 05:13:36;;;;;;;;;;;;;;;12.54;100.00;101303.84;3056500;19;20028;-54
2022/10/17 05:14:41;;;;;;;;;;;;;;;12.50;100.00;101305.81;3055581;19;20035;-53
2022/10/17 05:15:43;;;;;;;;;;;;;;;12.47;100.00;101308.66;3054822;19;20259;-53
2022/10/17 05:16:49;;;;;;;;;;;;;;;12.45;100.00;101309.69;3056491;19;20003;-53
2022/10/17 05:17:53;;;;;;;;;;;;;;;12.42;100.00;101315.25;3055624;19;19936;-53
2022/10/17 05:18:58;;;;;;;;;;;;;;;12.42;100.00;101312.56;3055643;19;19915;-53
2022/10/17 05:20:05;;;;;;;;;;;;;;;12.40;100.00;101311.78;3055477;19;19922;-53
2022/10/17 05:21:11;;;;;;;;;;;;;;;12.40;100.00;101319.81;2990406;19;20468;-53
2022/10/17 05:22:14;;;;;;;;;;;;;;;12.39;100.00;101321.63;3056402;19;20270;-51
2022/10/17 05:23:20;;;;;;;;;;;;;;;12.38;100.00;101322.59;3056947;19;19922;-54
2022/10/17 05:24:23;;;;;;;;;;;;;;;12.38;100.00;101329.75;3055515;19;19915;-54
2022/10/17 05:25:27;;;;;;;;;;;;;;;12.38;100.00;101329.75;3055712;19;19926;-52
2022/10/17 05:26:32;;;;;;;;;;;;;;;12.36;100.00;101332.50;3055374;19;19930;-52
2022/10/17 05:27:34;;;;;;;;;;;;;;;12.35;100.00;101336.13;3055484;19;19923;-53
2022/10/17 05:28:38;;;;;;;;;;;;;;;12.35;100.00;101340.63;3055365;19;19922;-54
2022/10/17 05:29:41;;;;;;;;;;;;;;;12.37;100.00;101341.41;3054858;19;19918;-52
2022/10/17 05:31:03;;;;;;;;;;;;;;;12.36;100.00;101348.56;3055670;19;19919;-52
2022/10/17 05:32:05;;;;;;;;;;;;;;;12.38;100.00;101357.38;3054966;19;19919;-51
2022/10/17 05:33:11;;;;;;;;;;;;;;;12.41;100.00;101361.72;3052707;19;19928;-52
2022/10/17 05:34:13;;;;;;;;;;;;;;;12.44;100.00;101362.38;3054051;19;20380;-55
2022/10/17 05:35:18;;;;;;;;;;;;;;;12.46;100.00;101364.97;3055313;19;19918;-52